sensor_id;sensor_type;location;lat;lon;timestamp;P1;durP1;ratioP1;P2;durP2;ratioP2
489;SDS011;231;48.120;11.576;2023-07-02T03:38:14;4.53;;;4.23;;
489;SDS011;231;48.120;11.576;2023-07-02T03:41:11;4.43;;;3.80;;
489;SDS011;231;48.120;11.576;2023-07-02T03:43:43;7.33;;;4.53;;
489;SDS011;231;48.120;11.576;2023-07-02T03:46:10;5.40;;;5.10;;
489;SDS011;231;48.120;11.576;2023-07-02T03:48:37;6.33;;;5.97;;
489;SDS011;231;48.120;11.576;2023-07-02T03:51:04;5.87;;;5.57;;
489;SDS011;231;48.120;11.576;2023-07-02T03:53:32;5.50;;;5.20;;
489;SDS011;231;48.120;11.576;2023-07-02T03:55:59;7.00;;;6.40;;
489;SDS011;231;48.120;11.576;2023-07-02T03:58:26;5.90;;;5.60;;
489;SDS011;231;48.120;11.576;2023-07-02T04:00:53;5.87;;;5.57;;
489;SDS011;231;48.120;11.576;2023-07-02T04:03:20;6.70;;;6.30;;
489;SDS011;231;48.120;11.576;2023-07-02T04:05:47;6.80;;;6.40;;
489;SDS011;231;48.120;11.576;2023-07-02T04:08:14;7.07;;;6.67;;
489;SDS011;231;48.120;11.576;2023-07-02T04:10:42;8.03;;;7.63;;
489;SDS011;231;48.120;11.576;2023-07-02T04:13:09;8.77;;;6.97;;
489;SDS011;231;48.120;11.576;2023-07-02T04:15:36;7.57;;;7.17;;
489;SDS011;231;48.120;11.576;2023-07-02T04:18:03;7.90;;;7.50;;
489;SDS011;231;48.120;11.576;2023-07-02T04:20:30;7.23;;;6.83;;
489;SDS011;231;48.120;11.576;2023-07-02T04:22:57;10.10;;;6.20;;
489;SDS011;231;48.120;11.576;2023-07-02T04:25:24;7.20;;;6.80;;
489;SDS011;231;48.120;11.576;2023-07-02T04:27:52;6.83;;;6.43;;
489;SDS011;231;48.120;11.576;2023-07-02T04:30:21;7.97;;;7.53;;
489;SDS011;231;48.120;11.576;2023-07-02T04:32:48;8.73;;;8.23;;
489;SDS011;231;48.120;11.576;2023-07-02T04:35:15;7.43;;;6.83;;
489;SDS011;231;48.120;11.576;2023-07-02T04:37:42;7.40;;;7.00;;
489;SDS011;231;48.120;11.576;2023-07-02T04:40:09;8.30;;;7.87;;
489;SDS011;231;48.120;11.576;2023-07-02T04:42:36;7.90;;;7.50;;
489;SDS011;231;48.120;11.576;2023-07-02T04:45:06;8.37;;;7.93;;
489;SDS011;231;48.120;11.576;2023-07-02T04:47:34;9.27;;;7.67;;
489;SDS011;231;48.120;11.576;2023-07-02T04:50:01;11.83;;;8.60;;
489;SDS011;231;48.120;11.576;2023-07-02T04:52:29;9.70;;;8.37;;
489;SDS011;231;48.120;11.576;2023-07-02T04:54:55;7.40;;;7.00;;
489;SDS011;231;48.120;11.576;2023-07-02T04:57:22;8.93;;;8.43;;
489;SDS011;231;48.120;11.576;2023-07-02T04:59:50;7.57;;;7.13;;
489;SDS011;231;48.120;11.576;2023-07-02T05:02:18;6.90;;;6.50;;
489;SDS011;231;48.120;11.576;2023-07-02T05:04:49;7.00;;;6.60;;
489;SDS011;231;48.120;11.576;2023-07-02T05:07:17;7.90;;;7.50;;
489;SDS011;231;48.120;11.576;2023-07-02T05:09:44;7.70;;;7.30;;
489;SDS011;231;48.120;11.576;2023-07-02T05:12:13;7.83;;;7.43;;
489;SDS011;231;48.120;11.576;2023-07-02T05:14:42;8.53;;;8.07;;
489;SDS011;231;48.120;11.576;2023-07-02T05:17:12;8.70;;;8.20;;
489;SDS011;231;48.120;11.576;2023-07-02T05:19:41;8.73;;;7.90;;
489;SDS011;231;48.120;11.576;2023-07-02T05:22:09;9.17;;;8.63;;
489;SDS011;231;48.120;11.576;2023-07-02T05:24:38;9.77;;;9.27;;
489;SDS011;231;48.120;11.576;2023-07-02T05:27:06;7.93;;;7.53;;
489;SDS011;231;48.120;11.576;2023-07-02T05:29:34;8.20;;;7.63;;
489;SDS011;231;48.120;11.576;2023-07-02T05:32:01;7.57;;;7.17;;
489;SDS011;231;48.120;11.576;2023-07-02T05:34:28;9.17;;;8.67;;
489;SDS011;231;48.120;11.576;2023-07-02T05:36:56;8.10;;;7.73;;
489;SDS011;231;48.120;11.576;2023-07-02T05:39:23;8.83;;;6.50;;
489;SDS011;231;48.120;11.576;2023-07-02T05:41:50;6.87;;;6.47;;
489;SDS011;231;48.120;11.576;2023-07-02T05:44:17;6.20;;;5.90;;
489;SDS011;231;48.120;11.576;2023-07-02T05:46:45;6.57;;;6.17;;
489;SDS011;231;48.120;11.576;2023-07-02T05:49:16;5.80;;;5.43;;
489;SDS011;231;48.120;11.576;2023-07-02T05:51:43;6.30;;;5.43;;
489;SDS011;231;48.120;11.576;2023-07-02T05:54:17;5.60;;;5.07;;
489;SDS011;231;48.120;11.576;2023-07-02T06:00:27;4.50;;;4.20;;
489;SDS011;231;48.120;11.576;2023-07-02T06:06:54;4.13;;;3.90;;
489;SDS011;231;48.120;11.576;2023-07-02T06:36:51;5.67;;;5.37;;
489;SDS011;231;48.120;11.576;2023-07-02T06:39:18;7.13;;;5.47;;
489;SDS011;231;48.120;11.576;2023-07-02T06:41:46;5.70;;;5.40;;
489;SDS011;231;48.120;11.576;2023-07-02T06:44:13;5.80;;;5.50;;
489;SDS011;231;48.120;11.576;2023-07-02T06:46:40;5.83;;;5.07;;
489;SDS011;231;48.120;11.576;2023-07-02T06:49:07;5.53;;;5.23;;
489;SDS011;231;48.120;11.576;2023-07-02T06:51:34;6.40;;;6.00;;
489;SDS011;231;48.120;11.576;2023-07-02T06:54:03;6.60;;;6.20;;
489;SDS011;231;48.120;11.576;2023-07-02T06:56:31;7.50;;;7.10;;
489;SDS011;231;48.120;11.576;2023-07-02T06:58:59;7.27;;;6.87;;
489;SDS011;231;48.120;11.576;2023-07-02T07:01:27;8.50;;;8.00;;
489;SDS011;231;48.120;11.576;2023-07-02T07:03:57;8.13;;;7.73;;
489;SDS011;231;48.120;11.576;2023-07-02T07:06:25;7.80;;;7.40;;
489;SDS011;231;48.120;11.576;2023-07-02T07:08:53;8.83;;;8.33;;
489;SDS011;231;48.120;11.576;2023-07-02T07:11:47;8.33;;;7.90;;
489;SDS011;231;48.120;11.576;2023-07-02T07:15:15;12.40;;;7.83;;
489;SDS011;231;48.120;11.576;2023-07-02T07:18:11;8.63;;;8.13;;
489;SDS011;231;48.120;11.576;2023-07-02T07:30:29;8.57;;;8.07;;
489;SDS011;231;48.120;11.576;2023-07-02T07:33:00;9.30;;;8.07;;
489;SDS011;231;48.120;11.576;2023-07-02T07:35:28;9.83;;;9.33;;
489;SDS011;231;48.120;11.576;2023-07-02T07:37:56;11.17;;;9.60;;
489;SDS011;231;48.120;11.576;2023-07-02T07:40:23;9.27;;;8.77;;
489;SDS011;231;48.120;11.576;2023-07-02T07:42:52;9.00;;;8.50;;
489;SDS011;231;48.120;11.576;2023-07-02T07:45:21;9.90;;;9.40;;
489;SDS011;231;48.120;11.576;2023-07-02T07:47:51;9.87;;;9.37;;
489;SDS011;231;48.120;11.576;2023-07-02T07:50:29;10.10;;;9.60;;
489;SDS011;231;48.120;11.576;2023-07-02T07:52:57;11.17;;;10.57;;
489;SDS011;231;48.120;11.576;2023-07-02T07:55:31;11.10;;;10.50;;
489;SDS011;231;48.120;11.576;2023-07-02T08:01:16;11.33;;;10.73;;
489;SDS011;231;48.120;11.576;2023-07-02T08:03:48;11.20;;;10.60;;
489;SDS011;231;48.120;11.576;2023-07-02T08:06:33;10.70;;;10.10;;
489;SDS011;231;48.120;11.576;2023-07-02T08:09:07;15.53;;;14.73;;
489;SDS011;231;48.120;11.576;2023-07-02T08:11:37;15.77;;;13.87;;
489;SDS011;231;48.120;11.576;2023-07-02T08:14:05;232.17;;;61.00;;
489;SDS011;231;48.120;11.576;2023-07-02T08:16:32;372.93;;;83.70;;
489;SDS011;231;48.120;11.576;2023-07-02T08:19:00;64.13;;;34.63;;
489;SDS011;231;48.120;11.576;2023-07-02T08:21:30;27.03;;;19.40;;
489;SDS011;231;48.120;11.576;2023-07-02T08:24:01;42.80;;;20.87;;
489;SDS011;231;48.120;11.576;2023-07-02T08:26:28;16.13;;;15.33;;
489;SDS011;231;48.120;11.576;2023-07-02T08:28:56;13.80;;;13.10;;
489;SDS011;231;48.120;11.576;2023-07-02T08:31:37;10.40;;;9.87;;
489;SDS011;231;48.120;11.576;2023-07-02T08:34:04;9.40;;;8.90;;
489;SDS011;231;48.120;11.576;2023-07-02T08:36:32;9.13;;;8.63;;
489;SDS011;231;48.120;11.576;2023-07-02T08:42:10;8.90;;;8.40;;
489;SDS011;231;48.120;11.576;2023-07-02T08:44:48;7.77;;;7.37;;
489;SDS011;231;48.120;11.576;2023-07-02T08:47:26;6.23;;;5.90;;
489;SDS011;231;48.120;11.576;2023-07-02T08:49:53;6.60;;;6.20;;
489;SDS011;231;48.120;11.576;2023-07-02T08:52:21;6.30;;;5.97;;
489;SDS011;231;48.120;11.576;2023-07-02T08:54:48;7.57;;;6.33;;
489;SDS011;231;48.120;11.576;2023-07-02T08:57:16;6.07;;;5.77;;
489;SDS011;231;48.120;11.576;2023-07-02T08:59:43;5.77;;;5.47;;
489;SDS011;231;48.120;11.576;2023-07-02T09:02:11;6.07;;;5.50;;
489;SDS011;231;48.120;11.576;2023-07-02T09:04:40;5.17;;;4.87;;
489;SDS011;231;48.120;11.576;2023-07-02T09:07:12;5.10;;;4.80;;
489;SDS011;231;48.120;11.576;2023-07-02T09:09:46;4.60;;;4.30;;
489;SDS011;231;48.120;11.576;2023-07-02T09:12:21;5.13;;;4.83;;
489;SDS011;231;48.120;11.576;2023-07-02T09:14:53;5.40;;;5.10;;
489;SDS011;231;48.120;11.576;2023-07-02T09:17:26;5.33;;;5.03;;
489;SDS011;231;48.120;11.576;2023-07-02T09:19:56;7.13;;;6.73;;
489;SDS011;231;48.120;11.576;2023-07-02T09:22:25;6.97;;;6.53;;
489;SDS011;231;48.120;11.576;2023-07-02T09:24:55;5.97;;;5.67;;
489;SDS011;231;48.120;11.576;2023-07-02T09:27:32;5.57;;;5.27;;
489;SDS011;231;48.120;11.576;2023-07-02T09:30:08;5.80;;;5.50;;
489;SDS011;231;48.120;11.576;2023-07-02T09:32:37;5.80;;;5.50;;
489;SDS011;231;48.120;11.576;2023-07-02T09:35:06;6.13;;;5.80;;
489;SDS011;231;48.120;11.576;2023-07-02T09:37:33;6.13;;;5.83;;
489;SDS011;231;48.120;11.576;2023-07-02T09:40:00;6.70;;;6.30;;
489;SDS011;231;48.120;11.576;2023-07-02T09:42:30;9.70;;;6.40;;
489;SDS011;231;48.120;11.576;2023-07-02T09:44:58;7.00;;;6.60;;
489;SDS011;231;48.120;11.576;2023-07-02T09:47:26;7.37;;;6.97;;
489;SDS011;231;48.120;11.576;2023-07-02T09:50:02;7.57;;;7.17;;
489;SDS011;231;48.120;11.576;2023-07-02T09:52:32;8.77;;;8.27;;
489;SDS011;231;48.120;11.576;2023-07-02T09:55:00;7.73;;;7.33;;
489;SDS011;231;48.120;11.576;2023-07-02T09:57:29;7.00;;;6.60;;
489;SDS011;231;48.120;11.576;2023-07-02T09:59:56;6.13;;;5.83;;
489;SDS011;231;48.120;11.576;2023-07-02T10:02:24;7.03;;;6.63;;
489;SDS011;231;48.120;11.576;2023-07-02T10:04:51;6.40;;;6.03;;
489;SDS011;231;48.120;11.576;2023-07-02T10:07:25;9.13;;;8.63;;
489;SDS011;231;48.120;11.576;2023-07-02T10:09:55;8.90;;;8.40;;
489;SDS011;231;48.120;11.576;2023-07-02T10:12:22;13.00;;;11.53;;
489;SDS011;231;48.120;11.576;2023-07-02T10:14:50;9.47;;;8.97;;
489;SDS011;231;48.120;11.576;2023-07-02T10:17:25;12.13;;;11.53;;
489;SDS011;231;48.120;11.576;2023-07-02T10:19:56;8.27;;;7.83;;
489;SDS011;231;48.120;11.576;2023-07-02T10:22:24;8.10;;;5.03;;
489;SDS011;231;48.120;11.576;2023-07-02T10:24:52;4.50;;;4.13;;
489;SDS011;231;48.120;11.576;2023-07-02T10:31:38;4.50;;;4.20;;
489;SDS011;231;48.120;11.576;2023-07-02T10:34:29;4.50;;;4.20;;
489;SDS011;231;48.120;11.576;2023-07-02T10:36:59;5.30;;;5.00;;
489;SDS011;231;48.120;11.576;2023-07-02T10:39:28;4.63;;;4.33;;
489;SDS011;231;48.120;11.576;2023-07-02T10:42:06;5.27;;;4.97;;
489;SDS011;231;48.120;11.576;2023-07-02T10:44:46;5.10;;;4.80;;
489;SDS011;231;48.120;11.576;2023-07-02T10:47:19;5.73;;;5.43;;
489;SDS011;231;48.120;11.576;2023-07-02T10:49:48;8.47;;;5.90;;
489;SDS011;231;48.120;11.576;2023-07-02T10:52:38;7.60;;;6.17;;
489;SDS011;231;48.120;11.576;2023-07-02T10:55:11;5.77;;;5.47;;
489;SDS011;231;48.120;11.576;2023-07-02T10:58:41;5.93;;;5.60;;
489;SDS011;231;48.120;11.576;2023-07-02T11:01:21;6.47;;;6.07;;
489;SDS011;231;48.120;11.576;2023-07-02T11:03:59;6.40;;;6.00;;
489;SDS011;231;48.120;11.576;2023-07-02T11:16:53;6.67;;;6.27;;
489;SDS011;231;48.120;11.576;2023-07-02T11:19:23;8.07;;;6.60;;
489;SDS011;231;48.120;11.576;2023-07-02T12:11:08;7.67;;;7.27;;
489;SDS011;231;48.120;11.576;2023-07-02T13:34:45;15.70;;;13.47;;
489;SDS011;231;48.120;11.576;2023-07-02T13:44:38;15.03;;;14.17;;
489;SDS011;231;48.120;11.576;2023-07-02T13:47:44;14.43;;;13.73;;
489;SDS011;231;48.120;11.576;2023-07-02T13:50:12;14.63;;;13.90;;
489;SDS011;231;48.120;11.576;2023-07-02T13:52:39;14.60;;;13.80;;
489;SDS011;231;48.120;11.576;2023-07-02T13:55:09;15.23;;;14.43;;
489;SDS011;231;48.120;11.576;2023-07-02T13:57:36;14.77;;;14.00;;
489;SDS011;231;48.120;11.576;2023-07-02T14:00:09;15.37;;;14.57;;
489;SDS011;231;48.120;11.576;2023-07-02T14:02:39;17.67;;;15.10;;
489;SDS011;231;48.120;11.576;2023-07-02T14:05:07;14.67;;;13.93;;
489;SDS011;231;48.120;11.576;2023-07-02T14:07:34;15.47;;;14.37;;
489;SDS011;231;48.120;11.576;2023-07-02T14:10:01;15.27;;;14.47;;
489;SDS011;231;48.120;11.576;2023-07-02T14:12:29;16.17;;;15.37;;
489;SDS011;231;48.120;11.576;2023-07-02T14:14:57;15.50;;;14.73;;
489;SDS011;231;48.120;11.576;2023-07-02T14:17:25;15.03;;;14.20;;
489;SDS011;231;48.120;11.576;2023-07-02T14:19:52;17.07;;;16.17;;
489;SDS011;231;48.120;11.576;2023-07-02T14:22:19;15.57;;;14.77;;
489;SDS011;231;48.120;11.576;2023-07-02T14:24:48;18.70;;;17.80;;
489;SDS011;231;48.120;11.576;2023-07-02T14:27:15;18.73;;;17.67;;
489;SDS011;231;48.120;11.576;2023-07-02T14:29:43;16.70;;;15.90;;
489;SDS011;231;48.120;11.576;2023-07-02T14:32:12;17.40;;;16.50;;
489;SDS011;231;48.120;11.576;2023-07-02T14:34:41;18.27;;;17.37;;
489;SDS011;231;48.120;11.576;2023-07-02T14:37:09;19.53;;;18.53;;
489;SDS011;231;48.120;11.576;2023-07-02T14:39:36;18.60;;;17.70;;
489;SDS011;231;48.120;11.576;2023-07-02T14:42:03;16.53;;;15.73;;
489;SDS011;231;48.120;11.576;2023-07-02T14:44:31;18.47;;;17.57;;
489;SDS011;231;48.120;11.576;2023-07-02T14:46:59;18.60;;;17.70;;
489;SDS011;231;48.120;11.576;2023-07-02T14:49:29;18.57;;;17.40;;
489;SDS011;231;48.120;11.576;2023-07-02T14:51:59;20.17;;;18.30;;
489;SDS011;231;48.120;11.576;2023-07-02T14:54:26;17.63;;;16.77;;
489;SDS011;231;48.120;11.576;2023-07-02T14:56:55;17.93;;;17.03;;
489;SDS011;231;48.120;11.576;2023-07-02T14:59:22;17.57;;;16.33;;
489;SDS011;231;48.120;11.576;2023-07-02T15:01:51;18.57;;;15.50;;
489;SDS011;231;48.120;11.576;2023-07-02T15:04:18;16.43;;;15.63;;
489;SDS011;231;48.120;11.576;2023-07-02T15:06:45;15.50;;;14.63;;
489;SDS011;231;48.120;11.576;2023-07-02T15:09:17;16.23;;;15.43;;
489;SDS011;231;48.120;11.576;2023-07-02T15:11:46;15.47;;;14.67;;
489;SDS011;231;48.120;11.576;2023-07-02T15:14:13;16.27;;;15.47;;
489;SDS011;231;48.120;11.576;2023-07-02T15:16:40;19.77;;;18.20;;
489;SDS011;231;48.120;11.576;2023-07-02T15:19:07;16.40;;;15.60;;
489;SDS011;231;48.120;11.576;2023-07-02T15:21:35;17.50;;;15.60;;
489;SDS011;231;48.120;11.576;2023-07-02T15:24:02;14.80;;;14.00;;
489;SDS011;231;48.120;11.576;2023-07-02T15:26:30;16.47;;;15.67;;
489;SDS011;231;48.120;11.576;2023-07-02T15:29:00;16.27;;;15.47;;
489;SDS011;231;48.120;11.576;2023-07-02T15:31:27;15.80;;;15.00;;
489;SDS011;231;48.120;11.576;2023-07-02T15:33:54;16.30;;;15.50;;
489;SDS011;231;48.120;11.576;2023-07-02T15:36:21;15.70;;;14.90;;
489;SDS011;231;48.120;11.576;2023-07-02T15:38:49;15.30;;;14.50;;
489;SDS011;231;48.120;11.576;2023-07-02T15:41:18;15.90;;;15.10;;
489;SDS011;231;48.120;11.576;2023-07-02T15:43:48;15.20;;;14.40;;
489;SDS011;231;48.120;11.576;2023-07-02T15:46:17;16.07;;;14.83;;
489;SDS011;231;48.120;11.576;2023-07-02T15:48:44;15.20;;;14.40;;
489;SDS011;231;48.120;11.576;2023-07-02T15:51:11;15.97;;;14.60;;
489;SDS011;231;48.120;11.576;2023-07-02T15:53:39;16.30;;;15.50;;
489;SDS011;231;48.120;11.576;2023-07-02T15:56:07;16.13;;;15.27;;
489;SDS011;231;48.120;11.576;2023-07-02T15:58:34;14.20;;;13.50;;
489;SDS011;231;48.120;11.576;2023-07-02T16:01:12;18.40;;;15.53;;
489;SDS011;231;48.120;11.576;2023-07-02T16:03:41;14.30;;;13.60;;
489;SDS011;231;48.120;11.576;2023-07-02T16:06:09;14.10;;;13.23;;
489;SDS011;231;48.120;11.576;2023-07-02T16:08:38;16.97;;;15.70;;
489;SDS011;231;48.120;11.576;2023-07-02T16:11:05;16.87;;;14.17;;
489;SDS011;231;48.120;11.576;2023-07-02T16:13:34;14.07;;;13.37;;
489;SDS011;231;48.120;11.576;2023-07-02T16:16:01;14.07;;;12.97;;
489;SDS011;231;48.120;11.576;2023-07-02T16:18:29;13.67;;;12.97;;
489;SDS011;231;48.120;11.576;2023-07-02T16:20:57;13.27;;;12.47;;
489;SDS011;231;48.120;11.576;2023-07-02T16:23:25;16.07;;;12.87;;
489;SDS011;231;48.120;11.576;2023-07-02T16:25:52;16.17;;;12.43;;
489;SDS011;231;48.120;11.576;2023-07-02T16:28:20;13.07;;;12.37;;
489;SDS011;231;48.120;11.576;2023-07-02T16:30:47;11.23;;;10.63;;
489;SDS011;231;48.120;11.576;2023-07-02T16:33:15;11.83;;;11.00;;
489;SDS011;231;48.120;11.576;2023-07-02T16:35:45;10.57;;;10.00;;
489;SDS011;231;48.120;11.576;2023-07-02T16:38:12;11.13;;;9.97;;
489;SDS011;231;48.120;11.576;2023-07-02T16:40:39;9.80;;;9.30;;
489;SDS011;231;48.120;11.576;2023-07-02T16:43:06;11.27;;;10.67;;
489;SDS011;231;48.120;11.576;2023-07-02T16:45:36;13.13;;;10.60;;
489;SDS011;231;48.120;11.576;2023-07-02T16:48:03;9.57;;;9.07;;
489;SDS011;231;48.120;11.576;2023-07-02T16:50:30;11.07;;;9.23;;
489;SDS011;231;48.120;11.576;2023-07-02T16:52:59;9.10;;;8.60;;
489;SDS011;231;48.120;11.576;2023-07-02T16:55:26;11.73;;;8.67;;
489;SDS011;231;48.120;11.576;2023-07-02T16:57:54;9.30;;;8.80;;
489;SDS011;231;48.120;11.576;2023-07-02T17:00:21;8.27;;;7.83;;
489;SDS011;231;48.120;11.576;2023-07-02T17:02:48;9.10;;;8.60;;
489;SDS011;231;48.120;11.576;2023-07-02T17:05:15;9.27;;;8.77;;
489;SDS011;231;48.120;11.576;2023-07-02T17:07:42;11.23;;;8.47;;
489;SDS011;231;48.120;11.576;2023-07-02T17:10:10;9.37;;;8.87;;
489;SDS011;231;48.120;11.576;2023-07-02T17:12:37;7.43;;;7.03;;
489;SDS011;231;48.120;11.576;2023-07-02T17:15:05;9.50;;;9.00;;
489;SDS011;231;48.120;11.576;2023-07-02T17:17:32;10.40;;;8.30;;
489;SDS011;231;48.120;11.576;2023-07-02T17:19:59;9.23;;;8.73;;
489;SDS011;231;48.120;11.576;2023-07-02T17:22:27;11.70;;;8.87;;
489;SDS011;231;48.120;11.576;2023-07-02T17:24:56;8.70;;;8.20;;
489;SDS011;231;48.120;11.576;2023-07-02T17:27:27;9.10;;;8.57;;
489;SDS011;231;48.120;11.576;2023-07-02T17:29:57;8.90;;;8.40;;
489;SDS011;231;48.120;11.576;2023-07-02T17:32:26;9.40;;;8.90;;
489;SDS011;231;48.120;11.576;2023-07-02T17:34:54;10.13;;;9.10;;
489;SDS011;231;48.120;11.576;2023-07-02T17:37:21;8.73;;;8.23;;
489;SDS011;231;48.120;11.576;2023-07-02T17:39:49;8.13;;;7.73;;
489;SDS011;231;48.120;11.576;2023-07-02T17:42:17;9.80;;;8.83;;
489;SDS011;231;48.120;11.576;2023-07-02T17:44:46;10.50;;;9.80;;
489;SDS011;231;48.120;11.576;2023-07-02T17:47:14;8.53;;;8.03;;
489;SDS011;231;48.120;11.576;2023-07-02T17:49:43;9.93;;;9.30;;
489;SDS011;231;48.120;11.576;2023-07-02T17:52:12;9.43;;;8.93;;
489;SDS011;231;48.120;11.576;2023-07-02T17:54:41;9.97;;;8.77;;
489;SDS011;231;48.120;11.576;2023-07-02T17:57:09;9.70;;;9.20;;
489;SDS011;231;48.120;11.576;2023-07-02T17:59:37;9.50;;;9.00;;
489;SDS011;231;48.120;11.576;2023-07-02T18:02:07;8.80;;;8.30;;
489;SDS011;231;48.120;11.576;2023-07-02T18:04:36;10.97;;;9.90;;
489;SDS011;231;48.120;11.576;2023-07-02T18:07:05;9.23;;;8.73;;
489;SDS011;231;48.120;11.576;2023-07-02T18:09:35;9.80;;;9.27;;
489;SDS011;231;48.120;11.576;2023-07-02T18:12:04;10.60;;;10.00;;
489;SDS011;231;48.120;11.576;2023-07-02T18:14:33;11.17;;;8.97;;
489;SDS011;231;48.120;11.576;2023-07-02T18:17:00;9.60;;;9.10;;
489;SDS011;231;48.120;11.576;2023-07-02T18:19:28;9.33;;;7.00;;
489;SDS011;231;48.120;11.576;2023-07-02T18:21:57;9.00;;;8.50;;
489;SDS011;231;48.120;11.576;2023-07-02T18:24:27;9.60;;;9.10;;
489;SDS011;231;48.120;11.576;2023-07-02T18:26:54;12.20;;;9.00;;
489;SDS011;231;48.120;11.576;2023-07-02T18:29:21;8.93;;;8.20;;
489;SDS011;231;48.120;11.576;2023-07-02T18:31:48;9.33;;;8.83;;
489;SDS011;231;48.120;11.576;2023-07-02T18:34:15;8.50;;;8.00;;
489;SDS011;231;48.120;11.576;2023-07-02T18:36:44;9.20;;;8.40;;
489;SDS011;231;48.120;11.576;2023-07-02T18:39:14;10.43;;;9.30;;
489;SDS011;231;48.120;11.576;2023-07-02T21:18:19;10.13;;;9.63;;
489;SDS011;231;48.120;11.576;2023-07-02T21:20:46;12.10;;;11.50;;
489;SDS011;231;48.120;11.576;2023-07-02T21:23:13;12.80;;;10.57;;
489;SDS011;231;48.120;11.576;2023-07-02T21:25:41;11.83;;;11.23;;
489;SDS011;231;48.120;11.576;2023-07-02T21:28:08;9.40;;;8.90;;
489;SDS011;231;48.120;11.576;2023-07-02T21:30:35;10.77;;;10.17;;
489;SDS011;231;48.120;11.576;2023-07-02T21:33:02;10.47;;;9.37;;
489;SDS011;231;48.120;11.576;2023-07-02T21:35:31;14.23;;;11.97;;
489;SDS011;231;48.120;11.576;2023-07-02T21:37:58;11.33;;;10.57;;
489;SDS011;231;48.120;11.576;2023-07-02T21:40:25;10.37;;;9.80;;
489;SDS011;231;48.120;11.576;2023-07-02T21:42:52;12.63;;;11.97;;
489;SDS011;231;48.120;11.576;2023-07-02T21:45:19;12.37;;;10.30;;
489;SDS011;231;48.120;11.576;2023-07-02T21:47:48;12.17;;;10.13;;
489;SDS011;231;48.120;11.576;2023-07-02T21:50:16;11.57;;;10.97;;
489;SDS011;231;48.120;11.576;2023-07-02T21:52:46;11.70;;;11.10;;
489;SDS011;231;48.120;11.576;2023-07-02T21:55:13;10.77;;;10.17;;
489;SDS011;231;48.120;11.576;2023-07-02T21:57:41;12.53;;;11.90;;
489;SDS011;231;48.120;11.576;2023-07-02T22:00:14;10.60;;;10.00;;
489;SDS011;231;48.120;11.576;2023-07-02T22:02:48;11.90;;;9.63;;
489;SDS011;231;48.120;11.576;2023-07-02T22:05:16;11.27;;;9.87;;
489;SDS011;231;48.120;11.576;2023-07-02T22:07:45;11.50;;;10.33;;
489;SDS011;231;48.120;11.576;2023-07-02T22:10:13;12.77;;;11.10;;
489;SDS011;231;48.120;11.576;2023-07-02T22:12:40;11.77;;;10.73;;
489;SDS011;231;48.120;11.576;2023-07-02T22:15:08;10.40;;;9.87;;
489;SDS011;231;48.120;11.576;2023-07-02T22:17:35;10.90;;;10.30;;
489;SDS011;231;48.120;11.576;2023-07-02T22:20:03;9.57;;;9.07;;
489;SDS011;231;48.120;11.576;2023-07-02T22:22:36;12.30;;;10.60;;
489;SDS011;231;48.120;11.576;2023-07-02T22:25:07;12.23;;;10.50;;
489;SDS011;231;48.120;11.576;2023-07-02T22:27:36;12.07;;;10.63;;
489;SDS011;231;48.120;11.576;2023-07-02T22:30:05;12.73;;;9.70;;
489;SDS011;231;48.120;11.576;2023-07-02T22:32:36;11.10;;;10.50;;
489;SDS011;231;48.120;11.576;2023-07-02T22:35:07;10.80;;;10.20;;
489;SDS011;231;48.120;11.576;2023-07-02T22:37:40;15.70;;;11.17;;
489;SDS011;231;48.120;11.576;2023-07-02T22:40:10;12.63;;;11.97;;
489;SDS011;231;48.120;11.576;2023-07-02T22:42:40;12.53;;;11.90;;
489;SDS011;231;48.120;11.576;2023-07-02T22:45:08;12.20;;;11.60;;
489;SDS011;231;48.120;11.576;2023-07-02T22:47:38;12.17;;;11.10;;
489;SDS011;231;48.120;11.576;2023-07-02T22:50:05;12.50;;;10.90;;
489;SDS011;231;48.120;11.576;2023-07-02T22:52:33;11.53;;;10.93;;
489;SDS011;231;48.120;11.576;2023-07-02T22:55:02;12.07;;;11.37;;
489;SDS011;231;48.120;11.576;2023-07-02T22:57:33;11.23;;;10.63;;
489;SDS011;231;48.120;11.576;2023-07-02T23:00:00;12.97;;;10.77;;
489;SDS011;231;48.120;11.576;2023-07-02T23:02:36;13.13;;;11.27;;
489;SDS011;231;48.120;11.576;2023-07-02T23:05:04;11.97;;;10.93;;
489;SDS011;231;48.120;11.576;2023-07-02T23:07:31;10.57;;;10.00;;
489;SDS011;231;48.120;11.576;2023-07-02T23:09:58;12.93;;;12.23;;
489;SDS011;231;48.120;11.576;2023-07-02T23:12:25;10.23;;;9.73;;
489;SDS011;231;48.120;11.576;2023-07-02T23:14:54;11.07;;;10.53;;
489;SDS011;231;48.120;11.576;2023-07-02T23:17:24;12.67;;;11.90;;
489;SDS011;231;48.120;11.576;2023-07-02T23:19:51;12.47;;;11.53;;
489;SDS011;231;48.120;11.576;2023-07-02T23:22:18;11.57;;;10.87;;
489;SDS011;231;48.120;11.576;2023-07-02T23:24:45;12.30;;;11.63;;
489;SDS011;231;48.120;11.576;2023-07-02T23:27:12;12.00;;;11.40;;
489;SDS011;231;48.120;11.576;2023-07-02T23:29:39;11.93;;;11.07;;
489;SDS011;231;48.120;11.576;2023-07-02T23:32:08;12.30;;;11.00;;
489;SDS011;231;48.120;11.576;2023-07-02T23:34:35;14.90;;;11.87;;
489;SDS011;231;48.120;11.576;2023-07-02T23:37:04;13.20;;;12.50;;
489;SDS011;231;48.120;11.576;2023-07-02T23:39:35;15.77;;;12.60;;
489;SDS011;231;48.120;11.576;2023-07-02T23:42:03;13.20;;;11.87;;
489;SDS011;231;48.120;11.576;2023-07-02T23:44:30;12.83;;;12.13;;
489;SDS011;231;48.120;11.576;2023-07-02T23:46:57;12.47;;;11.87;;
489;SDS011;231;48.120;11.576;2023-07-02T23:49:26;12.30;;;11.70;;
489;SDS011;231;48.120;11.576;2023-07-02T23:51:54;17.33;;;14.90;;
489;SDS011;231;48.120;11.576;2023-07-02T23:54:21;12.90;;;12.20;;
489;SDS011;231;48.120;11.576;2023-07-02T23:56:48;11.97;;;11.37;;
489;SDS011;231;48.120;11.576;2023-07-02T23:59:15;14.37;;;12.70;;
